sensor_id;sensor_type;location;lat;lon;timestamp;P1;durP1;ratioP1;P2;durP2;ratioP2
3177;SDS011;38141;42.666;23.344;2023-04-10T00:01:48;11.40;;;8.07;;
3177;SDS011;38141;42.666;23.344;2023-04-10T00:04:16;12.70;;;7.33;;
3177;SDS011;38141;42.666;23.344;2023-04-10T00:06:43;10.43;;;6.40;;
3177;SDS011;38141;42.666;23.344;2023-04-10T00:09:10;12.17;;;6.97;;
3177;SDS011;38141;42.666;23.344;2023-04-10T00:11:37;10.73;;;6.60;;
3177;SDS011;38141;42.666;23.344;2023-04-10T00:14:03;10.90;;;7.00;;
3177;SDS011;38141;42.666;23.344;2023-04-10T00:16:30;10.33;;;6.63;;
3177;SDS011;38141;42.666;23.344;2023-04-10T00:18:57;9.50;;;6.60;;
3177;SDS011;38141;42.666;23.344;2023-04-10T00:21:25;11.37;;;7.27;;
3177;SDS011;38141;42.666;23.344;2023-04-10T00:23:52;8.67;;;6.10;;
3177;SDS011;38141;42.666;23.344;2023-04-10T00:26:19;9.30;;;6.47;;
3177;SDS011;38141;42.666;23.344;2023-04-10T00:28:47;10.10;;;5.93;;
3177;SDS011;38141;42.666;23.344;2023-04-10T00:31:14;7.57;;;5.50;;
3177;SDS011;38141;42.666;23.344;2023-04-10T00:33:41;7.80;;;5.57;;
3177;SDS011;38141;42.666;23.344;2023-04-10T00:36:08;6.30;;;4.57;;
3177;SDS011;38141;42.666;23.344;2023-04-10T00:38:36;7.97;;;5.10;;
3177;SDS011;38141;42.666;23.344;2023-04-10T00:41:03;7.27;;;5.10;;
3177;SDS011;38141;42.666;23.344;2023-04-10T00:43:30;7.13;;;4.97;;
3177;SDS011;38141;42.666;23.344;2023-04-10T00:45:57;6.07;;;4.43;;
3177;SDS011;38141;42.666;23.344;2023-04-10T00:48:24;6.83;;;4.90;;
3177;SDS011;38141;42.666;23.344;2023-04-10T00:50:51;6.00;;;4.50;;
3177;SDS011;38141;42.666;23.344;2023-04-10T00:53:18;6.77;;;4.90;;
3177;SDS011;38141;42.666;23.344;2023-04-10T00:55:47;7.10;;;4.83;;
3177;SDS011;38141;42.666;23.344;2023-04-10T00:58:15;8.10;;;5.30;;
3177;SDS011;38141;42.666;23.344;2023-04-10T01:00:42;8.33;;;5.67;;
3177;SDS011;38141;42.666;23.344;2023-04-10T01:03:09;7.90;;;5.40;;
3177;SDS011;38141;42.666;23.344;2023-04-10T01:05:38;8.20;;;5.77;;
3177;SDS011;38141;42.666;23.344;2023-04-10T01:08:11;7.43;;;5.27;;
3177;SDS011;38141;42.666;23.344;2023-04-10T01:11:00;9.07;;;6.13;;
3177;SDS011;38141;42.666;23.344;2023-04-10T01:13:34;10.70;;;6.87;;
3177;SDS011;38141;42.666;23.344;2023-04-10T01:16:08;8.20;;;6.10;;
3177;SDS011;38141;42.666;23.344;2023-04-10T01:18:43;8.90;;;6.33;;
3177;SDS011;38141;42.666;23.344;2023-04-10T01:21:13;10.30;;;6.57;;
3177;SDS011;38141;42.666;23.344;2023-04-10T01:23:53;13.10;;;7.90;;
3177;SDS011;38141;42.666;23.344;2023-04-10T01:26:38;11.00;;;6.60;;
3177;SDS011;38141;42.666;23.344;2023-04-10T01:29:19;10.30;;;6.77;;
3177;SDS011;38141;42.666;23.344;2023-04-10T01:31:49;11.07;;;6.77;;
3177;SDS011;38141;42.666;23.344;2023-04-10T01:34:21;10.93;;;6.30;;
3177;SDS011;38141;42.666;23.344;2023-04-10T01:36:52;11.70;;;7.30;;
3177;SDS011;38141;42.666;23.344;2023-04-10T01:39:22;9.80;;;6.77;;
3177;SDS011;38141;42.666;23.344;2023-04-10T01:41:52;11.20;;;6.20;;
3177;SDS011;38141;42.666;23.344;2023-04-10T01:44:24;10.93;;;6.30;;
3177;SDS011;38141;42.666;23.344;2023-04-10T01:46:54;7.60;;;5.47;;
3177;SDS011;38141;42.666;23.344;2023-04-10T01:49:23;8.33;;;5.90;;
3177;SDS011;38141;42.666;23.344;2023-04-10T01:51:52;9.73;;;5.90;;
3177;SDS011;38141;42.666;23.344;2023-04-10T01:54:22;8.73;;;5.80;;
3177;SDS011;38141;42.666;23.344;2023-04-10T01:56:51;9.20;;;5.40;;
3177;SDS011;38141;42.666;23.344;2023-04-10T01:59:18;7.97;;;5.90;;
3177;SDS011;38141;42.666;23.344;2023-04-10T02:01:46;9.13;;;6.20;;
3177;SDS011;38141;42.666;23.344;2023-04-10T02:04:13;7.30;;;5.47;;
3177;SDS011;38141;42.666;23.344;2023-04-10T02:06:41;8.47;;;6.20;;
3177;SDS011;38141;42.666;23.344;2023-04-10T02:09:18;8.73;;;6.00;;
3177;SDS011;38141;42.666;23.344;2023-04-10T02:11:50;9.33;;;5.80;;
3177;SDS011;38141;42.666;23.344;2023-04-10T02:14:21;6.87;;;4.60;;
3177;SDS011;38141;42.666;23.344;2023-04-10T02:16:51;7.90;;;5.57;;
3177;SDS011;38141;42.666;23.344;2023-04-10T02:19:20;8.30;;;5.90;;
3177;SDS011;38141;42.666;23.344;2023-04-10T02:21:50;8.80;;;5.97;;
3177;SDS011;38141;42.666;23.344;2023-04-10T02:24:17;6.00;;;5.00;;
3177;SDS011;38141;42.666;23.344;2023-04-10T02:26:46;7.83;;;5.20;;
3177;SDS011;38141;42.666;23.344;2023-04-10T02:29:15;8.30;;;5.23;;
3177;SDS011;38141;42.666;23.344;2023-04-10T02:31:42;7.43;;;5.20;;
3177;SDS011;38141;42.666;23.344;2023-04-10T02:34:11;6.50;;;5.10;;
3177;SDS011;38141;42.666;23.344;2023-04-10T02:36:38;8.70;;;6.10;;
3177;SDS011;38141;42.666;23.344;2023-04-10T02:39:05;8.07;;;5.73;;
3177;SDS011;38141;42.666;23.344;2023-04-10T02:41:33;9.10;;;5.90;;
3177;SDS011;38141;42.666;23.344;2023-04-10T02:44:00;8.53;;;6.13;;
3177;SDS011;38141;42.666;23.344;2023-04-10T02:46:26;9.67;;;6.00;;
3177;SDS011;38141;42.666;23.344;2023-04-10T02:48:53;8.57;;;5.90;;
3177;SDS011;38141;42.666;23.344;2023-04-10T02:51:21;10.30;;;6.53;;
3177;SDS011;38141;42.666;23.344;2023-04-10T02:53:48;8.03;;;5.50;;
3177;SDS011;38141;42.666;23.344;2023-04-10T02:56:17;10.80;;;6.77;;
3177;SDS011;38141;42.666;23.344;2023-04-10T02:58:43;9.07;;;6.23;;
3177;SDS011;38141;42.666;23.344;2023-04-10T03:01:11;10.10;;;6.73;;
3177;SDS011;38141;42.666;23.344;2023-04-10T03:03:38;8.20;;;6.00;;
3177;SDS011;38141;42.666;23.344;2023-04-10T03:06:05;9.97;;;6.47;;
3177;SDS011;38141;42.666;23.344;2023-04-10T03:08:34;13.57;;;6.60;;
3177;SDS011;38141;42.666;23.344;2023-04-10T03:11:01;9.70;;;6.07;;
3177;SDS011;38141;42.666;23.344;2023-04-10T03:13:27;8.70;;;5.70;;
3177;SDS011;38141;42.666;23.344;2023-04-10T03:15:54;10.23;;;5.27;;
3177;SDS011;38141;42.666;23.344;2023-04-10T03:18:21;10.40;;;6.70;;
3177;SDS011;38141;42.666;23.344;2023-04-10T03:20:48;11.77;;;7.27;;
3177;SDS011;38141;42.666;23.344;2023-04-10T03:23:15;8.90;;;6.37;;
3177;SDS011;38141;42.666;23.344;2023-04-10T03:25:43;9.13;;;5.90;;
3177;SDS011;38141;42.666;23.344;2023-04-10T03:28:10;11.40;;;6.80;;
3177;SDS011;38141;42.666;23.344;2023-04-10T03:30:37;12.70;;;6.40;;
3177;SDS011;38141;42.666;23.344;2023-04-10T03:33:03;10.13;;;7.20;;
3177;SDS011;38141;42.666;23.344;2023-04-10T03:35:30;11.50;;;7.67;;
3177;SDS011;38141;42.666;23.344;2023-04-10T03:37:57;11.83;;;7.77;;
3177;SDS011;38141;42.666;23.344;2023-04-10T03:40:23;13.17;;;7.83;;
3177;SDS011;38141;42.666;23.344;2023-04-10T03:42:52;10.83;;;7.63;;
3177;SDS011;38141;42.666;23.344;2023-04-10T03:45:18;14.23;;;8.13;;
3177;SDS011;38141;42.666;23.344;2023-04-10T03:47:45;12.00;;;7.53;;
3177;SDS011;38141;42.666;23.344;2023-04-10T03:50:12;11.77;;;7.47;;
3177;SDS011;38141;42.666;23.344;2023-04-10T03:52:39;11.20;;;7.60;;
3177;SDS011;38141;42.666;23.344;2023-04-10T03:55:06;10.50;;;7.03;;
3177;SDS011;38141;42.666;23.344;2023-04-10T03:57:33;11.77;;;7.67;;
3177;SDS011;38141;42.666;23.344;2023-04-10T04:00:01;15.00;;;8.50;;
3177;SDS011;38141;42.666;23.344;2023-04-10T04:02:28;15.10;;;9.10;;
3177;SDS011;38141;42.666;23.344;2023-04-10T04:04:55;15.57;;;9.40;;
3177;SDS011;38141;42.666;23.344;2023-04-10T04:07:22;17.40;;;10.07;;
3177;SDS011;38141;42.666;23.344;2023-04-10T04:09:48;18.60;;;9.87;;
3177;SDS011;38141;42.666;23.344;2023-04-10T04:12:15;17.60;;;9.57;;
3177;SDS011;38141;42.666;23.344;2023-04-10T04:14:45;13.70;;;9.30;;
3177;SDS011;38141;42.666;23.344;2023-04-10T04:17:13;15.33;;;9.87;;
3177;SDS011;38141;42.666;23.344;2023-04-10T04:19:41;17.30;;;9.97;;
3177;SDS011;38141;42.666;23.344;2023-04-10T04:22:07;14.67;;;9.10;;
3177;SDS011;38141;42.666;23.344;2023-04-10T04:24:34;14.13;;;8.73;;
3177;SDS011;38141;42.666;23.344;2023-04-10T04:27:01;16.90;;;9.23;;
3177;SDS011;38141;42.666;23.344;2023-04-10T04:29:28;18.40;;;9.40;;
3177;SDS011;38141;42.666;23.344;2023-04-10T04:31:55;15.70;;;9.80;;
3177;SDS011;38141;42.666;23.344;2023-04-10T04:34:24;15.57;;;9.70;;
3177;SDS011;38141;42.666;23.344;2023-04-10T04:36:50;13.90;;;9.63;;
3177;SDS011;38141;42.666;23.344;2023-04-10T04:39:17;13.87;;;8.90;;
3177;SDS011;38141;42.666;23.344;2023-04-10T04:41:45;17.43;;;9.87;;
3177;SDS011;38141;42.666;23.344;2023-04-10T04:44:12;16.13;;;9.10;;
3177;SDS011;38141;42.666;23.344;2023-04-10T04:46:38;15.30;;;9.50;;
3177;SDS011;38141;42.666;23.344;2023-04-10T04:49:05;12.60;;;8.53;;
3177;SDS011;38141;42.666;23.344;2023-04-10T04:51:33;14.23;;;9.10;;
3177;SDS011;38141;42.666;23.344;2023-04-10T04:54:02;11.70;;;8.43;;
3177;SDS011;38141;42.666;23.344;2023-04-10T04:56:29;15.03;;;8.90;;
3177;SDS011;38141;42.666;23.344;2023-04-10T04:58:55;13.20;;;8.90;;
3177;SDS011;38141;42.666;23.344;2023-04-10T05:01:22;15.67;;;8.70;;
3177;SDS011;38141;42.666;23.344;2023-04-10T05:03:50;14.33;;;9.37;;
3177;SDS011;38141;42.666;23.344;2023-04-10T05:06:17;12.43;;;8.80;;
3177;SDS011;38141;42.666;23.344;2023-04-10T05:08:45;16.20;;;8.70;;
3177;SDS011;38141;42.666;23.344;2023-04-10T05:11:12;12.73;;;9.80;;
3177;SDS011;38141;42.666;23.344;2023-04-10T05:13:40;11.50;;;8.27;;
3177;SDS011;38141;42.666;23.344;2023-04-10T05:16:07;15.13;;;8.70;;
3177;SDS011;38141;42.666;23.344;2023-04-10T05:18:34;15.67;;;10.60;;
3177;SDS011;38141;42.666;23.344;2023-04-10T05:21:01;17.00;;;9.90;;
3177;SDS011;38141;42.666;23.344;2023-04-10T05:23:28;14.73;;;10.47;;
3177;SDS011;38141;42.666;23.344;2023-04-10T05:25:56;14.00;;;9.90;;
3177;SDS011;38141;42.666;23.344;2023-04-10T05:28:23;13.83;;;9.10;;
3177;SDS011;38141;42.666;23.344;2023-04-10T05:30:50;10.40;;;8.73;;
3177;SDS011;38141;42.666;23.344;2023-04-10T05:33:17;16.13;;;9.07;;
3177;SDS011;38141;42.666;23.344;2023-04-10T05:35:44;14.03;;;10.00;;
3177;SDS011;38141;42.666;23.344;2023-04-10T05:38:11;14.47;;;9.73;;
3177;SDS011;38141;42.666;23.344;2023-04-10T05:40:38;13.77;;;9.30;;
3177;SDS011;38141;42.666;23.344;2023-04-10T05:43:06;13.83;;;9.33;;
3177;SDS011;38141;42.666;23.344;2023-04-10T05:45:33;10.60;;;8.53;;
3177;SDS011;38141;42.666;23.344;2023-04-10T05:48:00;13.90;;;10.17;;
3177;SDS011;38141;42.666;23.344;2023-04-10T05:50:27;12.97;;;9.20;;
3177;SDS011;38141;42.666;23.344;2023-04-10T05:52:54;15.20;;;8.77;;
3177;SDS011;38141;42.666;23.344;2023-04-10T05:55:20;13.43;;;9.97;;
3177;SDS011;38141;42.666;23.344;2023-04-10T05:57:47;19.03;;;9.10;;
3177;SDS011;38141;42.666;23.344;2023-04-10T06:00:17;12.93;;;8.83;;
3177;SDS011;38141;42.666;23.344;2023-04-10T06:02:44;17.53;;;10.23;;
3177;SDS011;38141;42.666;23.344;2023-04-10T06:05:11;12.53;;;9.37;;
3177;SDS011;38141;42.666;23.344;2023-04-10T06:07:38;10.33;;;8.90;;
3177;SDS011;38141;42.666;23.344;2023-04-10T06:10:05;13.00;;;9.93;;
3177;SDS011;38141;42.666;23.344;2023-04-10T06:12:35;14.83;;;9.63;;
3177;SDS011;38141;42.666;23.344;2023-04-10T06:15:02;13.50;;;10.30;;
3177;SDS011;38141;42.666;23.344;2023-04-10T06:17:30;13.13;;;9.87;;
3177;SDS011;38141;42.666;23.344;2023-04-10T06:19:57;15.80;;;10.00;;
3177;SDS011;38141;42.666;23.344;2023-04-10T06:22:27;13.90;;;10.80;;
3177;SDS011;38141;42.666;23.344;2023-04-10T06:24:58;13.60;;;9.63;;
3177;SDS011;38141;42.666;23.344;2023-04-10T06:27:25;15.80;;;10.80;;
3177;SDS011;38141;42.666;23.344;2023-04-10T06:29:52;13.93;;;10.20;;
3177;SDS011;38141;42.666;23.344;2023-04-10T06:32:25;14.43;;;10.10;;
3177;SDS011;38141;42.666;23.344;2023-04-10T06:34:53;14.50;;;10.20;;
3177;SDS011;38141;42.666;23.344;2023-04-10T06:37:26;15.67;;;10.67;;
3177;SDS011;38141;42.666;23.344;2023-04-10T06:40:04;13.43;;;9.90;;
3177;SDS011;38141;42.666;23.344;2023-04-10T06:42:32;14.13;;;9.47;;
3177;SDS011;38141;42.666;23.344;2023-04-10T06:44:59;14.43;;;9.67;;
3177;SDS011;38141;42.666;23.344;2023-04-10T06:47:26;13.77;;;9.93;;
3177;SDS011;38141;42.666;23.344;2023-04-10T06:49:55;16.30;;;9.80;;
3177;SDS011;38141;42.666;23.344;2023-04-10T06:52:22;14.13;;;10.37;;
3177;SDS011;38141;42.666;23.344;2023-04-10T06:54:48;15.63;;;10.07;;
3177;SDS011;38141;42.666;23.344;2023-04-10T06:57:15;18.20;;;10.70;;
3177;SDS011;38141;42.666;23.344;2023-04-10T06:59:43;15.93;;;9.40;;
3177;SDS011;38141;42.666;23.344;2023-04-10T07:02:09;14.93;;;10.00;;
3177;SDS011;38141;42.666;23.344;2023-04-10T07:04:36;16.83;;;11.03;;
3177;SDS011;38141;42.666;23.344;2023-04-10T07:07:05;15.53;;;9.53;;
3177;SDS011;38141;42.666;23.344;2023-04-10T07:09:34;18.13;;;10.90;;
3177;SDS011;38141;42.666;23.344;2023-04-10T07:12:00;15.00;;;9.60;;
3177;SDS011;38141;42.666;23.344;2023-04-10T07:14:28;14.60;;;10.50;;
3177;SDS011;38141;42.666;23.344;2023-04-10T07:16:56;16.83;;;11.30;;
3177;SDS011;38141;42.666;23.344;2023-04-10T07:19:23;19.77;;;12.00;;
3177;SDS011;38141;42.666;23.344;2023-04-10T07:21:50;19.47;;;12.23;;
3177;SDS011;38141;42.666;23.344;2023-04-10T07:24:18;15.63;;;10.87;;
3177;SDS011;38141;42.666;23.344;2023-04-10T07:26:45;18.90;;;11.90;;
3177;SDS011;38141;42.666;23.344;2023-04-10T07:29:13;17.83;;;11.30;;
3177;SDS011;38141;42.666;23.344;2023-04-10T07:31:40;14.60;;;10.20;;
3177;SDS011;38141;42.666;23.344;2023-04-10T07:34:07;18.80;;;10.87;;
3177;SDS011;38141;42.666;23.344;2023-04-10T07:36:33;16.30;;;11.10;;
3177;SDS011;38141;42.666;23.344;2023-04-10T07:39:00;19.53;;;11.83;;
3177;SDS011;38141;42.666;23.344;2023-04-10T07:41:30;22.67;;;11.67;;
3177;SDS011;38141;42.666;23.344;2023-04-10T07:43:57;21.23;;;12.00;;
3177;SDS011;38141;42.666;23.344;2023-04-10T07:46:24;17.80;;;11.30;;
3177;SDS011;38141;42.666;23.344;2023-04-10T07:48:51;26.40;;;11.93;;
3177;SDS011;38141;42.666;23.344;2023-04-10T07:51:19;20.40;;;11.87;;
3177;SDS011;38141;42.666;23.344;2023-04-10T07:53:46;17.47;;;11.00;;
3177;SDS011;38141;42.666;23.344;2023-04-10T07:56:16;16.80;;;11.30;;
3177;SDS011;38141;42.666;23.344;2023-04-10T07:58:45;25.90;;;17.13;;
3177;SDS011;38141;42.666;23.344;2023-04-10T08:01:12;19.40;;;11.93;;
3177;SDS011;38141;42.666;23.344;2023-04-10T08:03:40;18.60;;;11.70;;
3177;SDS011;38141;42.666;23.344;2023-04-10T08:06:08;15.83;;;10.47;;
3177;SDS011;38141;42.666;23.344;2023-04-10T08:08:36;17.87;;;11.50;;
3177;SDS011;38141;42.666;23.344;2023-04-10T08:11:03;17.70;;;11.77;;
3177;SDS011;38141;42.666;23.344;2023-04-10T08:13:34;17.63;;;11.50;;
3177;SDS011;38141;42.666;23.344;2023-04-10T08:16:03;17.53;;;12.27;;
3177;SDS011;38141;42.666;23.344;2023-04-10T08:18:30;20.20;;;11.20;;
3177;SDS011;38141;42.666;23.344;2023-04-10T08:20:57;19.83;;;11.90;;
3177;SDS011;38141;42.666;23.344;2023-04-10T08:23:24;18.20;;;11.53;;
3177;SDS011;38141;42.666;23.344;2023-04-10T08:25:50;19.37;;;12.30;;
3177;SDS011;38141;42.666;23.344;2023-04-10T08:28:17;21.43;;;13.73;;
3177;SDS011;38141;42.666;23.344;2023-04-10T08:30:45;17.97;;;12.17;;
3177;SDS011;38141;42.666;23.344;2023-04-10T08:33:14;19.70;;;12.47;;
3177;SDS011;38141;42.666;23.344;2023-04-10T08:35:40;18.10;;;11.90;;
3177;SDS011;38141;42.666;23.344;2023-04-10T08:38:07;35.47;;;14.33;;
3177;SDS011;38141;42.666;23.344;2023-04-10T08:40:35;22.90;;;12.60;;
3177;SDS011;38141;42.666;23.344;2023-04-10T08:43:03;19.60;;;12.40;;
3177;SDS011;38141;42.666;23.344;2023-04-10T08:45:30;19.67;;;12.20;;
3177;SDS011;38141;42.666;23.344;2023-04-10T08:47:57;22.17;;;12.50;;
3177;SDS011;38141;42.666;23.344;2023-04-10T08:50:28;18.10;;;11.33;;
3177;SDS011;38141;42.666;23.344;2023-04-10T08:52:59;21.10;;;11.93;;
3177;SDS011;38141;42.666;23.344;2023-04-10T08:55:31;17.20;;;11.53;;
3177;SDS011;38141;42.666;23.344;2023-04-10T08:57:58;20.77;;;11.33;;
3177;SDS011;38141;42.666;23.344;2023-04-10T09:00:25;19.13;;;10.70;;
3177;SDS011;38141;42.666;23.344;2023-04-10T09:02:55;17.60;;;11.30;;
3177;SDS011;38141;42.666;23.344;2023-04-10T09:05:24;18.47;;;11.47;;
3177;SDS011;38141;42.666;23.344;2023-04-10T09:07:54;20.87;;;11.10;;
3177;SDS011;38141;42.666;23.344;2023-04-10T09:10:21;17.00;;;11.93;;
3177;SDS011;38141;42.666;23.344;2023-04-10T09:12:48;15.27;;;10.50;;
3177;SDS011;38141;42.666;23.344;2023-04-10T09:15:19;17.97;;;11.50;;
3177;SDS011;38141;42.666;23.344;2023-04-10T09:20:31;18.97;;;11.33;;
3177;SDS011;38141;42.666;23.344;2023-04-10T09:23:01;14.20;;;9.40;;
3177;SDS011;38141;42.666;23.344;2023-04-10T09:25:45;17.73;;;10.53;;
3177;SDS011;38141;42.666;23.344;2023-04-10T09:28:12;15.47;;;10.67;;
3177;SDS011;38141;42.666;23.344;2023-04-10T09:30:40;15.17;;;10.60;;
3177;SDS011;38141;42.666;23.344;2023-04-10T09:33:20;16.77;;;10.17;;
3177;SDS011;38141;42.666;23.344;2023-04-10T09:35:51;14.17;;;9.10;;
3177;SDS011;38141;42.666;23.344;2023-04-10T09:38:20;15.37;;;10.43;;
3177;SDS011;38141;42.666;23.344;2023-04-10T09:40:47;20.20;;;11.43;;
3177;SDS011;38141;42.666;23.344;2023-04-10T09:43:20;14.37;;;10.03;;
3177;SDS011;38141;42.666;23.344;2023-04-10T09:45:49;17.13;;;10.70;;
3177;SDS011;38141;42.666;23.344;2023-04-10T09:48:17;17.13;;;10.60;;
3177;SDS011;38141;42.666;23.344;2023-04-10T09:50:45;15.70;;;10.57;;
3177;SDS011;38141;42.666;23.344;2023-04-10T09:53:14;23.43;;;10.80;;
3177;SDS011;38141;42.666;23.344;2023-04-10T09:55:45;15.40;;;10.20;;
3177;SDS011;38141;42.666;23.344;2023-04-10T09:58:14;14.77;;;9.53;;
3177;SDS011;38141;42.666;23.344;2023-04-10T10:00:41;14.17;;;9.30;;
3177;SDS011;38141;42.666;23.344;2023-04-10T10:03:11;14.27;;;9.63;;
3177;SDS011;38141;42.666;23.344;2023-04-10T10:05:40;13.47;;;8.90;;
3177;SDS011;38141;42.666;23.344;2023-04-10T10:08:08;14.43;;;9.40;;
3177;SDS011;38141;42.666;23.344;2023-04-10T10:10:36;13.33;;;9.27;;
3177;SDS011;38141;42.666;23.344;2023-04-10T10:13:11;13.30;;;9.17;;
3177;SDS011;38141;42.666;23.344;2023-04-10T10:15:43;13.40;;;8.50;;
3177;SDS011;38141;42.666;23.344;2023-04-10T10:18:17;13.87;;;9.23;;
3177;SDS011;38141;42.666;23.344;2023-04-10T10:20:48;13.37;;;8.90;;
3177;SDS011;38141;42.666;23.344;2023-04-10T10:23:16;14.87;;;9.90;;
3177;SDS011;38141;42.666;23.344;2023-04-10T10:25:44;13.60;;;9.10;;
3177;SDS011;38141;42.666;23.344;2023-04-10T10:28:13;21.20;;;14.20;;
3177;SDS011;38141;42.666;23.344;2023-04-10T10:30:41;15.53;;;10.40;;
3177;SDS011;38141;42.666;23.344;2023-04-10T10:33:09;13.90;;;9.37;;
3177;SDS011;38141;42.666;23.344;2023-04-10T10:35:39;14.50;;;9.27;;
3177;SDS011;38141;42.666;23.344;2023-04-10T10:38:06;15.07;;;9.10;;
3177;SDS011;38141;42.666;23.344;2023-04-10T10:40:37;13.03;;;8.93;;
3177;SDS011;38141;42.666;23.344;2023-04-10T10:43:10;16.67;;;9.50;;
3177;SDS011;38141;42.666;23.344;2023-04-10T10:45:45;16.53;;;10.00;;
3177;SDS011;38141;42.666;23.344;2023-04-10T10:48:16;12.40;;;9.30;;
3177;SDS011;38141;42.666;23.344;2023-04-10T10:50:52;14.40;;;9.93;;
3177;SDS011;38141;42.666;23.344;2023-04-10T10:53:35;13.93;;;9.50;;
3177;SDS011;38141;42.666;23.344;2023-04-10T10:59:03;14.03;;;10.13;;
3177;SDS011;38141;42.666;23.344;2023-04-10T11:01:30;14.00;;;9.53;;
3177;SDS011;38141;42.666;23.344;2023-04-10T11:03:57;15.60;;;10.43;;
3177;SDS011;38141;42.666;23.344;2023-04-10T11:12:11;14.60;;;10.10;;
3177;SDS011;38141;42.666;23.344;2023-04-10T11:14:40;11.37;;;8.90;;
3177;SDS011;38141;42.666;23.344;2023-04-10T11:17:08;14.50;;;9.40;;
3177;SDS011;38141;42.666;23.344;2023-04-10T11:22:26;12.07;;;8.90;;
3177;SDS011;38141;42.666;23.344;2023-04-10T11:24:54;12.97;;;9.20;;
3177;SDS011;38141;42.666;23.344;2023-04-10T11:27:44;13.70;;;9.77;;
3177;SDS011;38141;42.666;23.344;2023-04-10T11:30:34;14.10;;;9.83;;
3177;SDS011;38141;42.666;23.344;2023-04-10T11:33:02;13.40;;;10.10;;
3177;SDS011;38141;42.666;23.344;2023-04-10T11:35:31;13.60;;;10.30;;
3177;SDS011;38141;42.666;23.344;2023-04-10T11:38:08;12.03;;;8.80;;
3177;SDS011;38141;42.666;23.344;2023-04-10T11:40:58;15.27;;;10.90;;
3177;SDS011;38141;42.666;23.344;2023-04-10T11:43:26;13.53;;;9.80;;
3177;SDS011;38141;42.666;23.344;2023-04-10T11:46:01;13.50;;;8.90;;
3177;SDS011;38141;42.666;23.344;2023-04-10T11:48:30;12.50;;;8.53;;
3177;SDS011;38141;42.666;23.344;2023-04-10T11:50:57;13.23;;;8.47;;
3177;SDS011;38141;42.666;23.344;2023-04-10T11:53:25;12.00;;;9.20;;
3177;SDS011;38141;42.666;23.344;2023-04-10T11:55:54;13.00;;;9.17;;
3177;SDS011;38141;42.666;23.344;2023-04-10T11:58:23;15.30;;;9.17;;
3177;SDS011;38141;42.666;23.344;2023-04-10T12:00:54;11.30;;;9.13;;
3177;SDS011;38141;42.666;23.344;2023-04-10T12:03:31;13.30;;;9.40;;
3177;SDS011;38141;42.666;23.344;2023-04-10T12:05:59;11.80;;;8.50;;
3177;SDS011;38141;42.666;23.344;2023-04-10T12:08:29;9.23;;;7.43;;
3177;SDS011;38141;42.666;23.344;2023-04-10T12:10:57;11.77;;;8.63;;
3177;SDS011;38141;42.666;23.344;2023-04-10T12:13:24;13.07;;;9.20;;
3177;SDS011;38141;42.666;23.344;2023-04-10T12:15:51;12.47;;;8.87;;
3177;SDS011;38141;42.666;23.344;2023-04-10T12:18:19;16.23;;;11.03;;
3177;SDS011;38141;42.666;23.344;2023-04-10T12:20:49;15.90;;;10.20;;
3177;SDS011;38141;42.666;23.344;2023-04-10T12:23:20;13.10;;;9.80;;
3177;SDS011;38141;42.666;23.344;2023-04-10T12:25:47;14.00;;;10.30;;
3177;SDS011;38141;42.666;23.344;2023-04-10T12:28:17;15.40;;;11.20;;
3177;SDS011;38141;42.666;23.344;2023-04-10T12:30:45;14.97;;;10.10;;
3177;SDS011;38141;42.666;23.344;2023-04-10T12:33:13;15.17;;;10.40;;
3177;SDS011;38141;42.666;23.344;2023-04-10T12:35:40;14.70;;;9.03;;
3177;SDS011;38141;42.666;23.344;2023-04-10T12:38:09;11.23;;;8.40;;
3177;SDS011;38141;42.666;23.344;2023-04-10T12:40:35;10.77;;;7.10;;
3177;SDS011;38141;42.666;23.344;2023-04-10T12:43:02;9.80;;;6.87;;
3177;SDS011;38141;42.666;23.344;2023-04-10T12:45:41;8.53;;;6.07;;
3177;SDS011;38141;42.666;23.344;2023-04-10T12:48:08;7.93;;;5.90;;
3177;SDS011;38141;42.666;23.344;2023-04-10T12:50:44;5.87;;;5.20;;
3177;SDS011;38141;42.666;23.344;2023-04-10T12:53:13;7.67;;;5.60;;
3177;SDS011;38141;42.666;23.344;2023-04-10T12:55:40;8.47;;;6.73;;
3177;SDS011;38141;42.666;23.344;2023-04-10T12:58:16;7.83;;;6.13;;
3177;SDS011;38141;42.666;23.344;2023-04-10T13:00:45;10.30;;;7.07;;
3177;SDS011;38141;42.666;23.344;2023-04-10T13:03:12;9.33;;;7.20;;
3177;SDS011;38141;42.666;23.344;2023-04-10T13:05:39;9.30;;;7.03;;
3177;SDS011;38141;42.666;23.344;2023-04-10T13:08:06;9.40;;;7.37;;
3177;SDS011;38141;42.666;23.344;2023-04-10T13:10:34;12.23;;;7.10;;
3177;SDS011;38141;42.666;23.344;2023-04-10T13:13:02;8.97;;;7.17;;
3177;SDS011;38141;42.666;23.344;2023-04-10T13:15:31;22.73;;;15.00;;
3177;SDS011;38141;42.666;23.344;2023-04-10T13:17:58;22.90;;;15.97;;
3177;SDS011;38141;42.666;23.344;2023-04-10T13:20:26;18.60;;;12.00;;
3177;SDS011;38141;42.666;23.344;2023-04-10T13:22:53;16.07;;;12.63;;
3177;SDS011;38141;42.666;23.344;2023-04-10T13:25:20;34.80;;;22.30;;
3177;SDS011;38141;42.666;23.344;2023-04-10T13:27:48;12.20;;;7.60;;
3177;SDS011;38141;42.666;23.344;2023-04-10T13:30:15;11.93;;;8.47;;
3177;SDS011;38141;42.666;23.344;2023-04-10T13:32:42;13.00;;;8.90;;
3177;SDS011;38141;42.666;23.344;2023-04-10T13:35:09;11.47;;;8.00;;
3177;SDS011;38141;42.666;23.344;2023-04-10T13:37:36;9.67;;;7.73;;
3177;SDS011;38141;42.666;23.344;2023-04-10T13:40:03;12.80;;;9.30;;
3177;SDS011;38141;42.666;23.344;2023-04-10T13:42:31;13.27;;;9.53;;
3177;SDS011;38141;42.666;23.344;2023-04-10T13:44:59;12.97;;;9.30;;
3177;SDS011;38141;42.666;23.344;2023-04-10T13:47:26;13.50;;;9.70;;
3177;SDS011;38141;42.666;23.344;2023-04-10T13:49:52;13.93;;;9.73;;
3177;SDS011;38141;42.666;23.344;2023-04-10T13:52:19;11.47;;;8.73;;
3177;SDS011;38141;42.666;23.344;2023-04-10T13:54:46;12.73;;;9.60;;
3177;SDS011;38141;42.666;23.344;2023-04-10T13:57:12;15.80;;;10.40;;
3177;SDS011;38141;42.666;23.344;2023-04-10T13:59:42;13.60;;;10.43;;
3177;SDS011;38141;42.666;23.344;2023-04-10T14:02:10;15.20;;;10.50;;
3177;SDS011;38141;42.666;23.344;2023-04-10T14:04:37;15.20;;;10.73;;
3177;SDS011;38141;42.666;23.344;2023-04-10T14:07:05;14.20;;;10.03;;
3177;SDS011;38141;42.666;23.344;2023-04-10T14:09:31;14.70;;;10.20;;
3177;SDS011;38141;42.666;23.344;2023-04-10T14:11:58;14.50;;;10.33;;
3177;SDS011;38141;42.666;23.344;2023-04-10T14:14:26;13.33;;;9.83;;
3177;SDS011;38141;42.666;23.344;2023-04-10T14:16:52;12.53;;;9.40;;
3177;SDS011;38141;42.666;23.344;2023-04-10T14:19:20;13.63;;;9.97;;
3177;SDS011;38141;42.666;23.344;2023-04-10T14:21:47;15.87;;;10.03;;
3177;SDS011;38141;42.666;23.344;2023-04-10T14:24:14;12.73;;;8.67;;
3177;SDS011;38141;42.666;23.344;2023-04-10T14:26:41;19.33;;;9.60;;
3177;SDS011;38141;42.666;23.344;2023-04-10T14:29:07;12.93;;;8.00;;
3177;SDS011;38141;42.666;23.344;2023-04-10T14:31:34;8.40;;;6.03;;
3177;SDS011;38141;42.666;23.344;2023-04-10T14:34:01;9.60;;;6.20;;
3177;SDS011;38141;42.666;23.344;2023-04-10T14:36:29;8.27;;;6.17;;
3177;SDS011;38141;42.666;23.344;2023-04-10T14:38:56;7.40;;;5.93;;
3177;SDS011;38141;42.666;23.344;2023-04-10T14:41:23;7.77;;;6.20;;
3177;SDS011;38141;42.666;23.344;2023-04-10T14:43:49;9.93;;;7.10;;
3177;SDS011;38141;42.666;23.344;2023-04-10T14:46:16;8.30;;;6.40;;
3177;SDS011;38141;42.666;23.344;2023-04-10T14:48:43;8.87;;;6.50;;
3177;SDS011;38141;42.666;23.344;2023-04-10T14:51:10;12.60;;;8.13;;
3177;SDS011;38141;42.666;23.344;2023-04-10T14:53:38;10.43;;;7.40;;
3177;SDS011;38141;42.666;23.344;2023-04-10T14:56:09;11.93;;;7.80;;